Redfield, Arkansas
Current Conditions -  °F | °C
As of 1:53 PM on Monday 22 Dec 2014 (Local Time) from KLIT Reporting Station
Overcast Overcast  
Wind Chill: 56°   Ceiling: 1000
Heat Index: 56°   Visibility: 9mi
Dew Point: 50°   Wind: 3mph
Humidity: 80%   Direction: NA
Pressure: 29.59"   Gusts: NA
Location:  34.45°N, 92.18°W
Report Text: KLIT 221953Z VRB03KT 9SM OVC010 13/10 A2959 RMK AO2 SLP020 T01330100
Loading
Personal Weather Stations






























Interactive Weather Map New forecast layout! Learn more

10-Day Weather Forecast

Advertisements
Track Severe Weather on mobile